createdAt,value
2023-03-13T00:03:36.015Z,4.60
2023-03-13T00:07:37.329Z,4.30
2023-03-13T00:11:38.639Z,4.20
2023-03-13T00:15:39.799Z,4.80
2023-03-13T00:19:40.949Z,5.00
2023-03-13T00:23:42.198Z,4.87
2023-03-13T00:27:43.364Z,5.00
2023-03-13T00:31:44.623Z,4.60
2023-03-13T00:35:45.956Z,4.10
2023-03-13T00:39:47.091Z,5.20
2023-03-13T00:43:49.781Z,4.00
2023-03-13T00:47:50.910Z,4.70
2023-03-13T00:51:52.074Z,4.63
2023-03-13T00:56:02.674Z,4.50
2023-03-13T01:00:05.890Z,3.93
2023-03-13T01:04:10.277Z,4.50
2023-03-13T01:08:11.457Z,5.00
2023-03-13T01:12:12.623Z,3.80
2023-03-13T01:16:16.342Z,5.40
2023-03-13T01:20:17.835Z,4.47
2023-03-13T01:24:19.491Z,4.10
2023-03-13T01:28:21.449Z,3.77
2023-03-13T01:32:22.750Z,4.10
2023-03-13T01:36:24.734Z,4.70
2023-03-13T01:40:26.043Z,3.40
2023-03-13T01:44:27.222Z,3.83
2023-03-13T01:48:47.580Z,3.57
2023-03-13T01:52:48.766Z,3.50
2023-03-13T01:56:59.500Z,3.63
2023-03-13T02:01:01.079Z,3.60
2023-03-13T02:05:05.397Z,2.63
2023-03-13T02:09:10.367Z,3.40
2023-03-13T02:13:14.542Z,3.50
2023-03-13T02:17:15.850Z,2.70
2023-03-13T02:21:26.533Z,3.90
2023-03-13T02:25:42.813Z,3.50
2023-03-13T02:29:44.191Z,3.43
2023-03-13T02:33:45.454Z,3.00
2023-03-13T02:37:50.185Z,3.00
2023-03-13T02:41:52.756Z,3.10
2023-03-13T02:46:16.600Z,3.50
2023-03-13T02:50:18.945Z,3.90
2023-03-13T02:54:29.837Z,2.80
2023-03-13T02:58:49.859Z,2.70
2023-03-13T03:02:46.868Z,2.60
2023-03-13T03:06:48.526Z,2.60
2023-03-13T03:10:49.713Z,2.43
2023-03-13T03:14:50.966Z,2.97
2023-03-13T03:18:52.140Z,3.00
2023-03-13T03:22:53.291Z,3.30
2023-03-13T03:26:54.469Z,2.60
2023-03-13T03:30:55.846Z,2.50
2023-03-13T03:34:56.898Z,3.47
2023-03-13T03:38:58.471Z,2.47
2023-03-13T03:42:59.651Z,2.70
2023-03-13T03:47:00.893Z,3.33
2023-03-13T03:51:02.025Z,3.13
2023-03-13T03:55:03.834Z,2.57
2023-03-13T03:59:04.993Z,2.90
2023-03-13T04:03:06.235Z,3.17
2023-03-13T04:07:07.319Z,3.13
2023-03-13T04:11:08.521Z,2.93
2023-03-13T04:15:10.581Z,3.63
2023-03-13T04:19:14.851Z,4.07
2023-03-13T04:23:16.230Z,2.40
2023-03-13T04:27:18.000Z,2.63
2023-03-13T04:31:19.610Z,2.87
2023-03-13T04:35:20.979Z,2.87
2023-03-13T04:39:24.739Z,3.33
2023-03-13T04:43:27.271Z,3.10
2023-03-13T04:47:28.442Z,2.77
2023-03-13T04:51:29.702Z,2.90
2023-03-13T04:55:31.025Z,3.37
2023-03-13T04:59:32.794Z,2.00
2023-03-13T05:03:33.964Z,2.37
2023-03-13T05:07:35.117Z,2.47
2023-03-13T05:11:36.373Z,2.43
2023-03-13T05:15:37.560Z,2.47
2023-03-13T05:19:38.697Z,2.37
2023-03-13T05:23:39.837Z,2.63
2023-03-13T05:27:41.278Z,2.50
2023-03-13T05:31:42.546Z,2.13
2023-03-13T05:35:43.686Z,3.17
2023-03-13T05:39:44.856Z,2.83
2023-03-13T05:43:46.041Z,2.50
2023-03-13T05:47:47.489Z,2.37
2023-03-13T05:51:49.422Z,3.30
2023-03-13T05:55:50.555Z,2.40
2023-03-13T05:59:51.725Z,2.63
2023-03-13T06:03:53.056Z,2.30
2023-03-13T06:07:54.366Z,2.30
2023-03-13T06:11:55.515Z,2.37
2023-03-13T06:15:57.615Z,3.20
2023-03-13T06:19:58.742Z,2.90
2023-03-13T06:23:59.890Z,2.70
2023-03-13T06:28:01.081Z,2.70
2023-03-13T06:32:02.443Z,3.13
2023-03-13T06:36:04.211Z,2.03
2023-03-13T06:40:06.440Z,2.30
2023-03-13T06:44:07.614Z,2.77
2023-03-13T06:48:08.770Z,2.50
2023-03-13T06:52:09.950Z,2.53
2023-03-13T06:56:11.422Z,2.43
2023-03-13T07:00:13.707Z,2.37
2023-03-13T07:04:15.636Z,2.03
2023-03-13T07:08:16.738Z,2.00
2023-03-13T07:12:17.891Z,2.23
2023-03-13T07:16:19.117Z,1.50
2023-03-13T07:20:20.323Z,2.10
2023-03-13T07:24:21.606Z,2.07
2023-03-13T07:28:23.287Z,2.20
2023-03-13T07:32:24.516Z,2.10
2023-03-13T07:36:25.782Z,1.77
2023-03-13T07:40:27.017Z,1.90
2023-03-13T07:44:28.235Z,1.70
2023-03-13T07:48:32.811Z,1.43
2023-03-13T07:52:33.948Z,2.20
2023-03-13T07:56:34.998Z,1.60
2023-03-13T08:00:36.143Z,1.60
2023-03-13T08:04:37.324Z,1.50
2023-03-13T08:08:39.154Z,1.30
2023-03-13T08:12:40.314Z,1.90
2023-03-13T08:16:41.606Z,2.10
2023-03-13T08:20:44.657Z,1.80
2023-03-13T08:24:45.703Z,2.10
2023-03-13T08:28:49.546Z,2.10
2023-03-13T08:32:50.882Z,2.20
2023-03-13T08:36:52.139Z,2.90
2023-03-13T08:40:57.230Z,2.30
2023-03-13T08:44:58.410Z,2.33
2023-03-13T08:48:59.682Z,2.50
2023-03-13T08:53:02.033Z,2.07
2023-03-13T08:57:03.365Z,2.13
2023-03-13T09:01:07.756Z,2.83
2023-03-13T09:05:09.244Z,1.90
2023-03-13T09:09:11.395Z,2.70
2023-03-13T09:13:12.549Z,3.00
2023-03-13T09:17:13.703Z,2.10
2023-03-13T09:21:18.384Z,2.60
2023-03-13T09:25:19.617Z,3.17
2023-03-13T09:29:21.677Z,2.20
2023-03-13T09:33:25.623Z,2.30
2023-03-13T09:37:26.765Z,2.60
2023-03-13T09:41:37.802Z,2.10
2023-03-13T09:45:42.988Z,2.10
2023-03-13T09:49:51.378Z,2.70
2023-03-13T09:54:04.986Z,2.70
2023-03-13T09:58:25.112Z,2.60
2023-03-13T10:02:33.072Z,2.70
2023-03-13T10:06:40.603Z,2.50
2023-03-13T10:10:48.570Z,2.47
2023-03-13T10:14:59.085Z,2.50
2023-03-13T10:19:04.021Z,2.50
2023-03-13T10:23:18.146Z,2.70
2023-03-13T10:27:19.291Z,3.00
2023-03-13T10:31:32.405Z,2.53
2023-03-13T10:35:40.154Z,2.10
2023-03-13T10:39:41.245Z,2.40
2023-03-13T10:43:51.665Z,2.60
2023-03-13T10:47:58.724Z,3.57
2023-03-13T10:52:03.104Z,2.57
2023-03-13T10:56:12.771Z,2.93
2023-03-13T11:00:27.017Z,3.83
2023-03-13T11:04:31.993Z,2.93
2023-03-13T11:08:35.483Z,2.93
2023-03-13T11:12:40.565Z,3.17
2023-03-13T11:16:48.764Z,3.13
2023-03-13T11:20:50.725Z,3.30
2023-03-13T11:25:10.713Z,2.23
2023-03-13T11:29:24.994Z,3.43
2023-03-13T11:33:35.823Z,3.13
2023-03-13T11:37:39.271Z,3.27
2023-03-13T11:41:44.293Z,2.83
2023-03-13T11:46:10.824Z,3.37
2023-03-13T11:50:25.201Z,2.80
2023-03-13T11:54:39.440Z,4.23
2023-03-13T11:58:50.650Z,3.20
2023-03-13T12:02:58.211Z,3.17
2023-03-13T12:07:04.826Z,3.07
2023-03-13T12:11:21.713Z,3.07
2023-03-13T12:15:38.828Z,3.03
2023-03-13T12:20:06.550Z,3.57
2023-03-13T12:24:29.785Z,2.80
2023-03-13T12:28:58.286Z,3.13
2023-03-13T12:33:03.308Z,2.30
2023-03-13T12:37:14.239Z,2.47
2023-03-13T12:41:25.327Z,2.70
2023-03-13T12:45:28.707Z,2.70
2023-03-13T12:49:57.549Z,2.47
2023-03-13T12:54:19.468Z,2.33
2023-03-13T12:58:34.105Z,2.50
2023-03-13T13:02:35.254Z,3.00
2023-03-13T13:06:55.313Z,3.00
2023-03-13T13:11:17.067Z,2.37
2023-03-13T13:15:21.924Z,2.27
2023-03-13T13:19:26.986Z,2.63
2023-03-13T13:23:36.131Z,2.37
2023-03-13T13:27:41.119Z,2.47
2023-03-13T13:31:54.142Z,2.20
2023-03-13T13:36:22.287Z,2.47
2023-03-13T13:40:31.234Z,2.20
2023-03-13T13:44:32.380Z,2.33
2023-03-13T13:48:38.738Z,3.40
2023-03-13T13:52:40.855Z,2.43
2023-03-13T13:56:47.489Z,2.17
2023-03-13T14:01:00.759Z,2.00
2023-03-13T14:05:08.102Z,2.33
2023-03-13T14:09:21.699Z,1.83
2023-03-13T14:13:24.168Z,2.10
2023-03-13T14:17:25.334Z,1.93
2023-03-13T14:21:26.606Z,2.10
2023-03-13T14:25:30.570Z,2.13
2023-03-13T14:29:31.874Z,2.03
2023-03-13T14:33:33.868Z,2.17
2023-03-13T14:37:44.713Z,2.67
2023-03-13T14:41:48.016Z,1.90
2023-03-13T14:45:50.295Z,2.10
2023-03-13T14:49:59.793Z,1.93
2023-03-13T14:54:02.170Z,1.60
2023-03-13T14:58:06.840Z,2.27
2023-03-13T15:02:30.204Z,2.07
2023-03-13T15:06:31.353Z,1.83
2023-03-13T15:10:39.858Z,2.20
2023-03-13T15:14:43.943Z,1.80
2023-03-13T15:18:46.471Z,2.10
2023-03-13T15:22:47.646Z,1.90
2023-03-13T15:26:49.395Z,2.10
2023-03-13T15:30:51.794Z,2.00
2023-03-13T15:34:53.128Z,2.13
2023-03-13T15:38:54.605Z,2.60
2023-03-13T15:42:55.902Z,1.40
2023-03-13T15:46:57.400Z,2.00
2023-03-13T15:51:01.882Z,2.30
2023-03-13T15:55:03.989Z,2.33
2023-03-13T15:59:11.073Z,1.50
2023-03-13T16:03:18.780Z,1.80
2023-03-13T16:07:21.153Z,1.93
2023-03-13T16:11:23.933Z,1.90
2023-03-13T16:15:25.357Z,2.20
2023-03-13T16:19:26.631Z,1.93
2023-03-13T16:23:28.010Z,2.13
2023-03-13T16:27:29.392Z,1.70
2023-03-13T16:31:32.498Z,1.77
2023-03-13T16:35:33.970Z,1.93
2023-03-13T16:39:35.210Z,1.80
2023-03-13T16:43:36.549Z,1.87
2023-03-13T16:47:38.031Z,2.63
2023-03-13T16:51:39.676Z,2.20
2023-03-13T16:55:40.960Z,2.00
2023-03-13T16:59:42.263Z,1.70
2023-03-13T17:03:44.282Z,1.97
2023-03-13T17:07:48.058Z,2.30
2023-03-13T17:11:49.329Z,2.07
2023-03-13T17:15:50.694Z,1.90
2023-03-13T17:19:52.013Z,2.00
2023-03-13T17:23:53.294Z,2.30
2023-03-13T17:27:54.799Z,2.00
2023-03-13T17:31:56.054Z,2.40
2023-03-13T17:35:57.351Z,3.30
2023-03-13T17:39:58.565Z,1.70
2023-03-13T17:43:59.925Z,4.20
2023-03-13T17:48:01.136Z,2.63
2023-03-13T17:52:02.518Z,2.50
2023-03-13T17:56:12.443Z,2.20
2023-03-13T18:00:20.549Z,2.40
2023-03-13T18:04:21.688Z,2.00
2023-03-13T18:08:22.871Z,2.10
2023-03-13T18:12:24.147Z,2.30
2023-03-13T18:16:33.081Z,1.50
2023-03-13T18:20:34.336Z,1.90
2023-03-13T18:24:35.738Z,1.93
2023-03-13T18:28:37.003Z,2.03
2023-03-13T18:32:38.376Z,2.73
2023-03-13T18:36:39.763Z,2.17
2023-03-13T18:40:41.010Z,2.20
2023-03-13T18:44:42.146Z,2.30
2023-03-13T18:48:43.289Z,3.27
2023-03-13T18:52:44.346Z,3.33
2023-03-13T18:56:46.726Z,3.30
2023-03-13T19:00:47.887Z,2.77
2023-03-13T19:04:49.040Z,2.93
2023-03-13T19:08:53.006Z,2.77
2023-03-13T19:12:55.468Z,2.70
2023-03-13T19:16:57.482Z,2.90
2023-03-13T19:20:58.765Z,3.13
2023-03-13T19:25:00.820Z,2.87
2023-03-13T19:29:02.682Z,2.33
2023-03-13T19:33:03.945Z,2.83
2023-03-13T19:37:05.240Z,2.20
2023-03-13T19:41:08.670Z,2.30
2023-03-13T19:45:10.925Z,1.50
2023-03-13T19:49:18.023Z,1.40
2023-03-13T19:53:19.320Z,1.97
2023-03-13T19:57:20.804Z,1.40
2023-03-13T20:01:22.207Z,1.20
2023-03-13T20:05:26.614Z,1.30
2023-03-13T20:09:27.989Z,1.50
2023-03-13T20:13:29.804Z,1.57
2023-03-13T20:17:31.109Z,1.03
2023-03-13T20:21:34.725Z,1.37
2023-03-13T20:25:36.044Z,1.40
2023-03-13T20:29:37.433Z,1.30
2023-03-13T20:33:39.806Z,1.00
2023-03-13T20:37:41.450Z,0.80
2023-03-13T20:41:42.751Z,1.10
2023-03-13T20:45:44.821Z,0.90
2023-03-13T20:49:46.391Z,1.00
2023-03-13T20:53:47.788Z,1.20
2023-03-13T20:57:49.193Z,1.23
2023-03-13T21:01:50.545Z,1.53
2023-03-13T21:05:51.990Z,0.73
2023-03-13T21:09:53.245Z,0.90
2023-03-13T21:13:54.638Z,1.10
2023-03-13T21:17:56.044Z,0.87
2023-03-13T21:21:57.227Z,0.90
2023-03-13T21:25:59.747Z,0.80
2023-03-13T21:30:01.802Z,0.70
2023-03-13T21:34:03.218Z,0.90
2023-03-13T21:38:04.419Z,0.93
2023-03-13T21:42:05.895Z,0.87
2023-03-13T21:46:09.462Z,1.13
2023-03-13T21:50:11.614Z,1.00
2023-03-13T21:54:12.770Z,1.40
2023-03-13T21:58:13.961Z,1.10
2023-03-13T22:02:15.157Z,1.30
2023-03-13T22:06:18.951Z,1.23
2023-03-13T22:10:20.153Z,0.80
2023-03-13T22:14:21.402Z,1.00
2023-03-13T22:18:22.836Z,1.00
2023-03-13T22:22:24.982Z,1.37
2023-03-13T22:26:26.145Z,1.17
2023-03-13T22:30:27.326Z,0.70
2023-03-13T22:34:28.590Z,0.80
2023-03-13T22:38:30.045Z,1.00
2023-03-13T22:42:31.193Z,0.90
2023-03-13T22:46:32.367Z,1.00
2023-03-13T22:50:34.322Z,0.90
2023-03-13T22:54:35.482Z,1.37
2023-03-13T22:58:37.747Z,1.03
2023-03-13T23:02:38.811Z,1.20
2023-03-13T23:06:40.669Z,1.10
2023-03-13T23:10:43.333Z,1.23
2023-03-13T23:14:44.483Z,1.50
2023-03-13T23:18:46.144Z,1.50
2023-03-13T23:22:49.288Z,1.20
2023-03-13T23:26:50.453Z,1.47
2023-03-13T23:30:51.678Z,1.57
2023-03-13T23:34:52.848Z,1.83
2023-03-13T23:38:54.415Z,1.40
2023-03-13T23:42:55.679Z,1.20
2023-03-13T23:46:56.935Z,1.60
2023-03-13T23:50:58.086Z,1.20
2023-03-13T23:54:59.751Z,1.53
2023-03-13T23:59:00.906Z,1.30
